Time;durP1;ratioP1;P1;durP2;ratioP2;P2;SDS_P1;SDS_P2;PMS_P1;PMS_P2;Temp;Humidity;BMP_temperature;BMP_pressure;BME280_temperature;BME280_humidity;BME280_pressure;Samples;Min_cycle;Max_cycle;Signal;HPM_P1;HPM_P2
2021/06/12 00:02:17;;;;;;;0.63;0.20;;;26.40;33.30;;;;;;5089123;28;20024;-68
2021/06/12 00:04:43;;;;;;;0.30;0.30;;;26.20;33.60;;;;;;5090902;28;20099;-68
2021/06/12 00:07:10;;;;;;;0.20;0.20;;;26.20;33.90;;;;;;5081970;28;20217;-69
2021/06/12 00:09:36;;;;;;;0.65;0.35;;;26.20;33.60;;;;;;5089762;28;20043;-68
2021/06/12 00:12:03;;;;;;;0.30;0.30;;;26.10;33.10;;;;;;5092425;28;20024;-68
2021/06/12 00:14:29;;;;;;;0.30;0.30;;;26.70;32.10;;;;;;5094514;28;20027;-68
2021/06/12 00:16:56;;;;;;;1.83;0.30;;;26.10;34.00;;;;;;5094057;28;20028;-68
2021/06/12 00:19:22;;;;;;;1.20;0.30;;;26.00;33.60;;;;;;5085167;28;20025;-69
2021/06/12 00:21:49;;;;;;;1.40;0.88;;;26.20;33.40;;;;;;5087722;28;20038;-69
2021/06/12 00:24:15;;;;;;;0.20;0.20;;;25.90;34.90;;;;;;5089939;28;20027;-68
2021/06/12 00:26:42;;;;;;;0.70;0.38;;;25.90;34.20;;;;;;5092728;28;20031;-68
2021/06/12 00:29:08;;;;;;;0.30;0.30;;;26.30;33.50;;;;;;5086338;28;20104;-68
2021/06/12 00:31:35;;;;;;;2.20;0.40;;;26.40;33.80;;;;;;5091851;28;20028;-69
2021/06/12 00:34:01;;;;;;;0.40;0.40;;;25.80;35.20;;;;;;5094835;28;20099;-69
2021/06/12 00:36:27;;;;;;;4.03;0.80;;;25.80;35.50;;;;;;5093664;28;20107;-68
2021/06/12 00:38:55;;;;;;;1.02;0.50;;;26.10;34.80;;;;;;5094304;28;20117;-69
2021/06/12 00:41:22;;;;;;;0.35;0.35;;;25.80;35.70;;;;;;5086759;28;20016;-69
2021/06/12 00:43:48;;;;;;;1.30;0.47;;;26.00;35.10;;;;;;5091106;28;20052;-69
2021/06/12 00:46:16;;;;;;;0.20;0.20;;;25.90;36.10;;;;;;5092074;28;20036;-69
2021/06/12 00:48:43;;;;;;;1.38;0.30;;;26.00;35.70;;;;;;5094251;28;20020;-69
2021/06/12 00:51:10;;;;;;;0.80;0.30;;;25.80;35.60;;;;;;5093192;28;20532;-68
2021/06/12 00:53:38;;;;;;;0.50;0.30;;;26.10;34.90;;;;;;5092258;28;20059;-69
2021/06/12 00:56:06;;;;;;;0.52;0.30;;;26.00;35.10;;;;;;5077870;28;20024;-69
2021/06/12 00:58:33;;;;;;;0.60;0.30;;;26.00;35.00;;;;;;5076402;28;20034;-68
2021/06/12 01:01:01;;;;;;;0.38;0.38;;;26.00;34.80;;;;;;5093182;28;20024;-69
2021/06/12 01:03:28;;;;;;;0.32;0.32;;;26.40;34.10;;;;;;5096045;28;20477;-68
2021/06/12 01:05:58;;;;;;;0.30;0.30;;;25.70;35.50;;;;;;5074931;28;20119;-68
2021/06/12 01:08:27;;;;;;;0.35;0.35;;;25.90;34.70;;;;;;5093331;28;20051;-68
2021/06/12 01:10:53;;;;;;;0.80;0.40;;;26.10;34.60;;;;;;5091331;28;20039;-71
2021/06/12 01:13:26;;;;;;;8.75;1.23;;;25.90;34.90;;;;;;5089206;28;20034;-72
2021/06/12 01:16:00;;;;;;;0.60;0.50;;;25.70;35.40;;;;;;5092019;28;20032;-71
2021/06/12 01:18:33;;;;;;;1.05;0.30;;;25.30;36.10;;;;;;5092392;28;20020;-71
2021/06/12 01:21:04;;;;;;;0.30;0.30;;;25.20;36.50;;;;;;5095621;28;20082;-71
2021/06/12 01:23:52;;;;;;;1.55;0.35;;;25.90;35.40;;;;;;5075214;28;20032;-71
2021/06/12 01:26:29;;;;;;;0.20;0.20;;;25.10;36.60;;;;;;5080652;28;20021;-71
2021/06/12 01:29:19;;;;;;;0.55;0.32;;;24.90;37.20;;;;;;5090974;28;20433;-71
2021/06/12 01:31:47;;;;;;;1.17;1.00;;;24.70;38.40;;;;;;5075858;28;20028;-71
2021/06/12 01:34:14;;;;;;;2.03;0.30;;;24.80;37.20;;;;;;5086405;28;20028;-71
2021/06/12 01:36:43;;;;;;;0.85;0.40;;;24.70;37.90;;;;;;5085464;28;20027;-71
2021/06/12 01:39:10;;;;;;;0.40;0.30;;;25.00;36.50;;;;;;5092134;28;20042;-71
2021/06/12 01:41:39;;;;;;;1.30;0.68;;;25.10;36.20;;;;;;5093957;28;20028;-72
2021/06/12 01:44:07;;;;;;;0.47;0.30;;;25.20;36.10;;;;;;5070937;28;20020;-72
2021/06/12 01:46:35;;;;;;;0.40;0.40;;;25.10;36.20;;;;;;5095286;28;20081;-71
2021/06/12 01:49:03;;;;;;;0.30;0.30;;;25.00;36.70;;;;;;5090088;28;20051;-71
2021/06/12 01:51:29;;;;;;;0.40;0.40;;;25.20;36.60;;;;;;5091114;28;20041;-71
2021/06/12 01:53:58;;;;;;;0.25;0.25;;;25.30;35.90;;;;;;5093308;28;20031;-71
2021/06/12 01:56:26;;;;;;;0.20;0.20;;;25.20;36.00;;;;;;5076643;28;20056;-71
2021/06/12 01:58:54;;;;;;;1.40;0.50;;;25.00;37.20;;;;;;5090684;28;20074;-71
2021/06/12 02:01:23;;;;;;;0.65;0.40;;;24.80;37.00;;;;;;5074244;28;20542;-73
2021/06/12 02:03:51;;;;;;;0.68;0.30;;;24.90;38.10;;;;;;5094094;28;20059;-74
2021/06/12 02:06:18;;;;;;;0.30;0.30;;;24.90;38.50;;;;;;5091080;28;20024;-73
2021/06/12 02:08:46;;;;;;;2.50;0.40;;;24.90;38.70;;;;;;5068000;28;20074;-74
2021/06/12 02:11:14;;;;;;;2.38;0.40;;;24.90;38.70;;;;;;5091441;28;20096;-72
2021/06/12 02:13:41;;;;;;;0.55;0.40;;;25.00;39.70;;;;;;5092307;28;20052;-73
2021/06/12 02:16:08;;;;;;;0.40;0.40;;;24.80;39.90;;;;;;5094092;28;20035;-73
2021/06/12 02:18:35;;;;;;;0.77;0.50;;;24.60;40.50;;;;;;5068019;28;20028;-71
2021/06/12 02:21:02;;;;;;;0.80;0.80;;;24.40;40.20;;;;;;5092184;28;20449;-73
2021/06/12 02:23:31;;;;;;;0.40;0.40;;;24.30;40.80;;;;;;5076919;28;20446;-71
2021/06/12 02:25:58;;;;;;;0.40;0.40;;;24.20;41.20;;;;;;5089649;28;20050;-72
2021/06/12 02:28:34;;;;;;;1.30;0.80;;;24.20;40.80;;;;;;5094831;28;20039;-76
2021/06/12 02:31:16;;;;;;;1.08;0.50;;;24.00;41.00;;;;;;5077923;28;20020;-77
2021/06/12 02:33:46;;;;;;;0.40;0.40;;;23.60;41.70;;;;;;5084083;28;20103;-72
2021/06/12 02:36:14;;;;;;;0.63;0.60;;;23.70;42.20;;;;;;5093855;28;20020;-70
2021/06/12 02:38:40;;;;;;;0.45;0.45;;;23.60;42.40;;;;;;5092127;28;20101;-72
2021/06/12 02:41:07;;;;;;;0.50;0.50;;;23.40;42.60;;;;;;5081262;28;20114;-70
2021/06/12 02:43:34;;;;;;;2.35;0.47;;;23.20;43.00;;;;;;5091057;28;20020;-70
2021/06/12 02:46:06;;;;;;;0.40;0.40;;;23.10;43.00;;;;;;5071792;28;20038;-70
2021/06/12 02:48:33;;;;;;;0.98;0.63;;;22.80;43.00;;;;;;5075515;28;20365;-72
2021/06/12 02:51:01;;;;;;;0.50;0.50;;;22.90;44.10;;;;;;5071734;28;20115;-70
2021/06/12 02:53:32;;;;;;;2.33;0.65;;;22.60;44.00;;;;;;5093638;28;20112;-71
2021/06/12 02:56:01;;;;;;;0.50;0.50;;;22.40;44.00;;;;;;5071205;28;20024;-71
2021/06/12 02:58:29;;;;;;;0.50;0.50;;;22.40;44.80;;;;;;5089432;28;20044;-72
2021/06/12 03:00:57;;;;;;;0.98;0.70;;;22.30;45.10;;;;;;5089922;28;20035;-71
2021/06/12 03:03:25;;;;;;;0.40;0.40;;;22.20;45.20;;;;;;5093994;28;20019;-71
2021/06/12 03:06:02;;;;;;;4.20;0.90;;;22.10;45.20;;;;;;5101477;28;20027;-70
2021/06/12 03:08:35;;;;;;;0.63;0.63;;;22.00;46.70;;;;;;5078088;28;20024;-69
2021/06/12 03:11:05;;;;;;;3.63;0.68;;;21.90;45.70;;;;;;5083736;28;20028;-69
2021/06/12 03:13:33;;;;;;;0.60;0.60;;;21.80;46.30;;;;;;5105548;28;20023;-70
2021/06/12 03:16:01;;;;;;;1.77;0.60;;;21.70;47.20;;;;;;5105455;28;20490;-70
2021/06/12 03:18:29;;;;;;;0.52;0.52;;;21.70;47.80;;;;;;5071731;28;20346;-69
2021/06/12 03:20:57;;;;;;;1.48;0.60;;;21.60;47.30;;;;;;5091192;28;20027;-71
2021/06/12 03:23:27;;;;;;;1.52;0.60;;;21.50;47.40;;;;;;5094464;28;20922;-69
2021/06/12 03:25:55;;;;;;;1.27;0.75;;;21.30;47.60;;;;;;5092479;28;20079;-69
2021/06/12 03:28:22;;;;;;;0.82;0.57;;;21.10;47.90;;;;;;5089882;28;20460;-69
2021/06/12 03:30:49;;;;;;;0.73;0.70;;;21.00;47.20;;;;;;5091130;28;20164;-69
2021/06/12 03:33:16;;;;;;;0.93;0.55;;;21.00;48.10;;;;;;5088308;28;20093;-70
2021/06/12 03:35:43;;;;;;;0.95;0.80;;;21.00;48.00;;;;;;5090438;28;20366;-69
2021/06/12 03:38:10;;;;;;;1.20;0.70;;;21.00;48.50;;;;;;5090095;28;20365;-70
2021/06/12 03:40:37;;;;;;;1.70;1.15;;;20.70;47.90;;;;;;5093506;28;20487;-70
2021/06/12 03:43:05;;;;;;;0.68;0.60;;;20.80;48.30;;;;;;5091144;28;20052;-70
2021/06/12 03:45:33;;;;;;;0.60;0.60;;;20.80;48.20;;;;;;5084185;28;20462;-70
2021/06/12 03:48:02;;;;;;;0.60;0.60;;;20.80;48.80;;;;;;5093819;28;20454;-71
2021/06/12 03:50:29;;;;;;;0.98;0.60;;;20.60;48.50;;;;;;5076077;28;20115;-71
2021/06/12 03:52:57;;;;;;;3.08;0.60;;;20.70;49.20;;;;;;5093586;28;20031;-70
2021/06/12 03:55:23;;;;;;;0.65;0.65;;;20.70;49.30;;;;;;5093714;28;20035;-70
2021/06/12 03:57:50;;;;;;;3.65;1.75;;;20.80;48.90;;;;;;5073695;28;20020;-70
2021/06/12 04:00:19;;;;;;;1.15;0.80;;;20.50;49.70;;;;;;5079205;28;20020;-70
2021/06/12 04:02:45;;;;;;;0.60;0.60;;;20.60;49.20;;;;;;5087636;28;20020;-69
2021/06/12 04:05:12;;;;;;;0.90;0.63;;;20.50;49.50;;;;;;5093479;28;20442;-70
2021/06/12 04:07:40;;;;;;;2.38;0.93;;;20.40;48.50;;;;;;5093117;28;20101;-71
2021/06/12 04:10:10;;;;;;;0.88;0.77;;;20.30;51.10;;;;;;5109102;28;20449;-71
2021/06/12 04:12:37;;;;;;;0.50;0.50;;;20.20;50.90;;;;;;5111660;28;20028;-70
2021/06/12 04:15:06;;;;;;;0.98;0.70;;;20.20;51.00;;;;;;5092845;28;20042;-71
2021/06/12 04:17:32;;;;;;;2.63;0.73;;;20.20;51.00;;;;;;5087451;28;20106;-71
2021/06/12 04:19:59;;;;;;;0.90;0.90;;;20.20;50.10;;;;;;5096825;28;20077;-70
2021/06/12 04:22:26;;;;;;;3.60;0.55;;;20.20;50.30;;;;;;5078589;28;20024;-70
2021/06/12 04:24:53;;;;;;;0.68;0.60;;;20.30;49.70;;;;;;5099741;28;20016;-70
2021/06/12 04:27:19;;;;;;;2.63;0.70;;;20.30;50.70;;;;;;5096323;28;20032;-71
2021/06/12 04:29:46;;;;;;;0.68;0.68;;;20.30;50.30;;;;;;5097871;28;20036;-71
2021/06/12 04:32:12;;;;;;;1.50;1.40;;;20.10;51.60;;;;;;5095874;28;20032;-70
2021/06/12 04:34:39;;;;;;;1.10;0.70;;;20.20;50.80;;;;;;5094458;28;20016;-71
2021/06/12 04:37:06;;;;;;;0.50;0.50;;;20.20;50.30;;;;;;5093018;28;20027;-71
2021/06/12 04:39:33;;;;;;;4.65;0.80;;;20.10;50.50;;;;;;5079521;28;20126;-71
2021/06/12 04:41:59;;;;;;;2.33;0.70;;;20.00;50.30;;;;;;5092022;28;20126;-70
2021/06/12 04:44:25;;;;;;;0.95;0.60;;;20.20;51.00;;;;;;5096871;28;20031;-70
2021/06/12 04:46:52;;;;;;;0.50;0.50;;;20.20;51.20;;;;;;5093728;28;20040;-71
2021/06/12 04:49:18;;;;;;;0.50;0.50;;;20.00;52.30;;;;;;5078642;28;20065;-71
2021/06/12 04:51:45;;;;;;;0.68;0.68;;;19.90;53.10;;;;;;5071943;28;20092;-70
2021/06/12 04:54:11;;;;;;;3.17;0.60;;;20.00;50.60;;;;;;5106971;28;20576;-71
2021/06/12 04:56:38;;;;;;;0.75;0.70;;;20.10;50.70;;;;;;5082068;28;20043;-72
2021/06/12 04:59:05;;;;;;;2.15;0.80;;;20.10;51.20;;;;;;5077825;28;20161;-71
2021/06/12 05:01:31;;;;;;;1.30;0.68;;;20.10;51.70;;;;;;5076039;28;20030;-70
2021/06/12 05:03:58;;;;;;;1.75;0.75;;;19.90;52.50;;;;;;5095364;28;20020;-70
2021/06/12 05:06:24;;;;;;;2.92;0.65;;;20.00;51.20;;;;;;5096366;28;20065;-70
2021/06/12 05:08:51;;;;;;;2.70;0.60;;;19.90;52.00;;;;;;5075921;28;20470;-71
2021/06/12 05:11:17;;;;;;;0.60;0.60;;;19.90;52.30;;;;;;5078381;28;20055;-71
2021/06/12 05:13:44;;;;;;;1.02;0.70;;;20.00;51.00;;;;;;5094141;28;20027;-70
2021/06/12 05:16:11;;;;;;;3.72;0.75;;;20.00;52.50;;;;;;5090087;28;20055;-70
2021/06/12 05:18:42;;;;;;;5.38;0.70;;;19.90;52.40;;;;;;5095900;28;20074;-70
2021/06/12 05:21:09;;;;;;;0.60;0.60;;;19.80;52.50;;;;;;5096023;28;20031;-71
2021/06/12 05:23:36;;;;;;;1.25;1.15;;;19.80;52.80;;;;;;5093129;28;20016;-71
2021/06/12 05:26:06;;;;;;;0.88;0.68;;;19.80;51.50;;;;;;5095343;28;20047;-70
2021/06/12 05:28:33;;;;;;;1.05;0.60;;;19.80;52.70;;;;;;5078298;28;20114;-71
2021/06/12 05:31:00;;;;;;;0.80;0.80;;;19.80;51.80;;;;;;5095366;28;20024;-71
2021/06/12 05:33:27;;;;;;;0.95;0.63;;;19.70;53.00;;;;;;5095008;28;20589;-70
2021/06/12 05:35:58;;;;;;;4.53;0.68;;;19.80;51.50;;;;;;5089352;28;20037;-70
2021/06/12 05:38:25;;;;;;;0.60;0.60;;;19.70;52.90;;;;;;5101635;28;20023;-70
2021/06/12 05:40:53;;;;;;;2.25;0.65;;;19.80;52.10;;;;;;5103235;28;20088;-70
2021/06/12 05:43:19;;;;;;;1.90;0.80;;;19.70;51.40;;;;;;5079295;28;20029;-71
2021/06/12 05:45:46;;;;;;;0.98;0.65;;;19.80;51.70;;;;;;5098989;28;20019;-71
2021/06/12 05:48:12;;;;;;;1.10;0.82;;;19.80;50.80;;;;;;5102136;28;20074;-70
2021/06/12 05:50:38;;;;;;;0.70;0.70;;;19.70;53.70;;;;;;5088845;28;20065;-71
2021/06/12 05:53:05;;;;;;;1.98;0.88;;;19.80;52.50;;;;;;5094920;28;20470;-70
2021/06/12 05:55:32;;;;;;;4.03;0.75;;;19.70;53.30;;;;;;5073252;28;20425;-70
2021/06/12 05:57:58;;;;;;;1.85;0.80;;;19.70;53.10;;;;;;5089006;28;20172;-70
2021/06/12 06:00:25;;;;;;;1.13;1.08;;;19.80;52.60;;;;;;5094819;28;20024;-70
2021/06/12 06:02:52;;;;;;;1.50;0.90;;;19.80;52.70;;;;;;5090000;28;20450;-70
2021/06/12 06:05:18;;;;;;;0.70;0.70;;;19.80;52.70;;;;;;5093272;28;21242;-71
2021/06/12 06:07:45;;;;;;;1.17;0.95;;;19.70;52.40;;;;;;5093752;28;20028;-70
2021/06/12 06:10:11;;;;;;;3.70;0.93;;;19.70;53.10;;;;;;5095203;28;20047;-70
2021/06/12 06:12:38;;;;;;;0.60;0.60;;;19.60;53.30;;;;;;5094411;28;20096;-70
2021/06/12 06:15:07;;;;;;;0.60;0.60;;;19.50;52.20;;;;;;5092857;28;20028;-70
2021/06/12 06:17:33;;;;;;;0.88;0.70;;;19.50;52.90;;;;;;5088835;28;20026;-70
2021/06/12 06:19:59;;;;;;;3.85;1.33;;;19.40;52.60;;;;;;5094170;28;20020;-71
2021/06/12 06:22:26;;;;;;;0.75;0.75;;;19.40;54.10;;;;;;5094711;28;20377;-70
2021/06/12 06:24:52;;;;;;;0.70;0.60;;;19.50;53.40;;;;;;5089937;28;20012;-70
2021/06/12 06:27:19;;;;;;;2.65;0.80;;;19.40;53.70;;;;;;5094489;28;20020;-70
2021/06/12 06:29:45;;;;;;;0.68;0.68;;;19.40;52.70;;;;;;5092461;28;20043;-70
2021/06/12 06:32:12;;;;;;;1.17;0.73;;;19.50;53.20;;;;;;5091095;28;20028;-70
2021/06/12 06:34:38;;;;;;;1.83;0.70;;;19.40;55.30;;;;;;5107061;28;20035;-70
2021/06/12 06:37:05;;;;;;;0.55;0.55;;;19.30;54.40;;;;;;5114659;28;20027;-70
2021/06/12 06:39:32;;;;;;;1.70;0.70;;;19.30;55.30;;;;;;5115174;28;20047;-70
2021/06/12 06:41:59;;;;;;;2.25;0.60;;;19.30;55.30;;;;;;5114070;28;20353;-70
2021/06/12 06:44:25;;;;;;;1.27;1.02;;;19.30;55.40;;;;;;5104018;28;20055;-71
2021/06/12 06:46:52;;;;;;;1.95;0.70;;;19.30;54.80;;;;;;5110401;28;20039;-70
2021/06/12 06:49:18;;;;;;;1.45;0.70;;;19.30;55.10;;;;;;5091864;28;20480;-70
2021/06/12 06:51:45;;;;;;;1.17;0.60;;;19.30;55.30;;;;;;5096582;28;20085;-70
2021/06/12 06:54:12;;;;;;;2.58;0.80;;;19.30;55.20;;;;;;5114432;28;20024;-70
2021/06/12 06:56:38;;;;;;;2.78;0.70;;;19.30;55.40;;;;;;5095967;28;20407;-70
2021/06/12 06:59:05;;;;;;;0.60;0.60;;;19.30;55.30;;;;;;5079483;28;20030;-70
2021/06/12 07:01:31;;;;;;;4.18;1.08;;;19.30;55.00;;;;;;5110135;28;20030;-70
2021/06/12 07:03:58;;;;;;;2.55;1.45;;;19.30;54.20;;;;;;5086819;28;20411;-70
2021/06/12 07:06:24;;;;;;;3.10;1.00;;;19.40;52.70;;;;;;5094509;28;20016;-70
2021/06/12 07:08:51;;;;;;;0.70;0.70;;;19.30;54.70;;;;;;5084709;28;20031;-70
2021/06/12 07:11:17;;;;;;;0.80;0.80;;;19.30;55.10;;;;;;5094250;28;20027;-69
2021/06/12 07:13:44;;;;;;;1.83;1.10;;;19.30;55.90;;;;;;5094268;28;20024;-70
2021/06/12 07:16:10;;;;;;;4.55;0.88;;;19.20;56.00;;;;;;5107877;28;20033;-70
2021/06/12 07:18:37;;;;;;;0.68;0.68;;;19.10;57.80;;;;;;5112724;28;20456;-70
2021/06/12 07:21:03;;;;;;;1.55;0.50;;;19.10;56.10;;;;;;5089993;28;20370;-70
2021/06/12 07:23:30;;;;;;;1.50;0.90;;;19.10;55.80;;;;;;5093114;28;20060;-71
2021/06/12 07:25:56;;;;;;;2.08;0.60;;;19.20;55.90;;;;;;5105207;28;20407;-70
2021/06/12 07:28:23;;;;;;;5.53;0.80;;;19.10;55.90;;;;;;5095362;28;20028;-70
2021/06/12 07:30:49;;;;;;;2.38;0.60;;;19.20;55.10;;;;;;5113190;28;20028;-70
2021/06/12 07:33:16;;;;;;;1.02;0.93;;;19.10;56.50;;;;;;5098317;28;20115;-70
2021/06/12 07:35:43;;;;;;;0.68;0.55;;;19.10;57.00;;;;;;5093966;28;20031;-70
2021/06/12 07:38:09;;;;;;;0.90;0.90;;;19.10;56.70;;;;;;5094409;28;20047;-69
2021/06/12 07:40:37;;;;;;;0.80;0.80;;;19.10;56.50;;;;;;5111323;28;20095;-70
2021/06/12 07:43:04;;;;;;;3.22;0.68;;;19.10;56.80;;;;;;5100183;28;20038;-69
2021/06/12 07:45:31;;;;;;;1.15;0.80;;;19.10;57.30;;;;;;5113858;28;20454;-70
2021/06/12 07:47:58;;;;;;;2.30;1.02;;;19.10;57.30;;;;;;5112806;28;20027;-70
2021/06/12 07:50:27;;;;;;;4.55;0.70;;;19.10;58.10;;;;;;5097240;28;20099;-69
2021/06/12 07:52:54;;;;;;;3.45;1.30;;;19.10;58.10;;;;;;5094315;28;20024;-70
2021/06/12 07:55:20;;;;;;;0.70;0.70;;;19.10;58.60;;;;;;5080137;28;20024;-70
2021/06/12 07:57:47;;;;;;;1.10;0.60;;;19.10;58.10;;;;;;5108943;28;20023;-70
2021/06/12 08:00:14;;;;;;;0.57;0.57;;;19.20;58.10;;;;;;5096934;28;20035;-70
2021/06/12 08:02:40;;;;;;;1.02;0.68;;;19.20;58.20;;;;;;5117998;28;20027;-70
2021/06/12 08:05:07;;;;;;;0.80;0.70;;;19.20;58.10;;;;;;5097595;28;20031;-70
2021/06/12 08:07:34;;;;;;;3.47;1.55;;;19.30;57.80;;;;;;5113859;28;20097;-71
2021/06/12 08:10:02;;;;;;;6.63;1.42;;;19.30;57.60;;;;;;5098719;28;20028;-69
2021/06/12 08:12:31;;;;;;;2.97;1.15;;;19.40;57.20;;;;;;5104955;28;20019;-69
2021/06/12 08:14:58;;;;;;;3.08;0.73;;;19.40;56.30;;;;;;5109223;28;20055;-69
2021/06/12 08:17:24;;;;;;;10.45;1.33;;;19.50;57.70;;;;;;5105220;28;20042;-70
2021/06/12 08:19:51;;;;;;;5.20;0.80;;;19.50;59.10;;;;;;5115390;28;20039;-70
2021/06/12 08:22:17;;;;;;;3.00;0.60;;;19.50;60.00;;;;;;5106333;28;20114;-70
2021/06/12 08:24:44;;;;;;;2.20;1.00;;;19.50;59.60;;;;;;5110058;28;20028;-70
2021/06/12 08:27:10;;;;;;;1.25;0.73;;;19.60;58.50;;;;;;5100454;28;20016;-70
2021/06/12 08:29:37;;;;;;;6.47;1.38;;;19.60;58.80;;;;;;5093006;28;20039;-70
2021/06/12 08:32:05;;;;;;;2.08;0.77;;;19.60;59.80;;;;;;5107674;28;20099;-70
2021/06/12 08:34:32;;;;;;;3.33;2.17;;;19.50;60.40;;;;;;5079091;28;20390;-70
2021/06/12 08:37:02;;;;;;;1.98;1.00;;;19.60;59.70;;;;;;5097139;28;20028;-70
2021/06/12 08:39:28;;;;;;;6.22;1.52;;;19.60;61.30;;;;;;5079102;28;20031;-70
2021/06/12 08:41:55;;;;;;;4.88;1.20;;;19.70;59.10;;;;;;5113452;28;20586;-70
2021/06/12 08:44:24;;;;;;;1.45;0.65;;;19.80;59.90;;;;;;5115066;28;20030;-70
2021/06/12 08:46:51;;;;;;;3.10;0.93;;;19.80;59.80;;;;;;5096646;28;20535;-70
2021/06/12 08:49:18;;;;;;;3.25;0.80;;;19.90;58.30;;;;;;5109769;28;20032;-70
2021/06/12 08:51:45;;;;;;;3.42;1.52;;;19.90;58.30;;;;;;5116998;28;20023;-70
2021/06/12 08:54:16;;;;;;;4.45;0.90;;;20.00;57.90;;;;;;5096270;28;20093;-70
2021/06/12 08:56:45;;;;;;;2.92;1.80;;;20.10;57.90;;;;;;5103586;28;20039;-70
2021/06/12 08:59:12;;;;;;;1.85;1.02;;;20.00;58.40;;;;;;5110876;28;20107;-70
2021/06/12 09:01:39;;;;;;;11.38;3.17;;;20.20;56.90;;;;;;5101719;28;20028;-70
2021/06/12 09:04:05;;;;;;;2.72;0.93;;;20.20;56.60;;;;;;5097487;28;20024;-70
2021/06/12 09:06:32;;;;;;;1.60;1.30;;;20.10;57.30;;;;;;5114887;28;20048;-70
2021/06/12 09:08:58;;;;;;;0.77;0.70;;;20.20;57.60;;;;;;5116244;28;20372;-70
2021/06/12 09:11:26;;;;;;;0.68;0.60;;;20.20;57.30;;;;;;5116261;28;20027;-70
2021/06/12 09:14:00;;;;;;;4.55;0.82;;;20.20;55.40;;;;;;5116549;28;20056;-70
2021/06/12 09:16:27;;;;;;;2.45;1.73;;;20.20;56.70;;;;;;5092657;28;20028;-71
2021/06/12 09:18:56;;;;;;;1.00;0.60;;;20.20;57.30;;;;;;5101400;28;20059;-70
2021/06/12 09:21:28;;;;;;;2.75;0.60;;;20.20;56.90;;;;;;5097442;28;20503;-70
2021/06/12 09:23:57;;;;;;;;;;;20.20;56.00;;;;;;5096792;28;20059;-70
2021/06/12 09:26:50;;;;;;;4.07;0.95;;;20.20;55.70;;;;;;5116079;28;19961;-71
2021/06/12 09:29:19;;;;;;;2.67;0.88;;;20.20;56.00;;;;;;5108107;28;20047;-70
2021/06/12 09:31:51;;;;;;;0.95;0.82;;;20.20;57.70;;;;;;5075613;28;20029;-70
2021/06/12 09:34:26;;;;;;;3.93;1.50;;;20.20;58.00;;;;;;5080283;28;20032;-70
2021/06/12 09:36:53;;;;;;;1.15;0.85;;;20.20;57.50;;;;;;5100859;28;20061;-70
2021/06/12 09:39:24;;;;;;;3.38;1.55;;;20.20;57.60;;;;;;5115950;28;20028;-70
2021/06/12 09:41:53;;;;;;;1.67;1.23;;;20.20;57.40;;;;;;5116217;28;20028;-69
2021/06/12 09:44:40;;;;;;;2.08;0.90;;;20.20;58.70;;;;;;5107860;28;20438;-70
2021/06/12 09:47:23;;;;;;;2.85;1.83;;;20.20;56.70;;;;;;5098520;28;20031;-70
2021/06/12 09:49:50;;;;;;;2.30;1.10;;;20.30;55.90;;;;;;5114580;28;20034;-70
2021/06/12 09:52:19;;;;;;;1.30;1.20;;;20.40;57.00;;;;;;5096384;28;20123;-70
2021/06/12 09:54:49;;;;;;;1.10;0.88;;;20.30;58.20;;;;;;5114524;28;20035;-70
2021/06/12 09:57:24;;;;;;;1.58;1.00;;;20.20;58.50;;;;;;5108955;28;20028;-70
2021/06/12 09:59:53;;;;;;;2.90;1.10;;;20.30;59.10;;;;;;5080533;28;20019;-70
2021/06/12 10:02:38;;;;;;;2.03;1.33;;;20.20;59.00;;;;;;5093819;28;20039;-70
2021/06/12 10:05:07;;;;;;;4.05;1.17;;;20.20;57.90;;;;;;5093017;28;20056;-69
2021/06/12 10:07:34;;;;;;;2.58;1.55;;;20.30;58.60;;;;;;5107170;28;20054;-70
2021/06/12 10:10:04;;;;;;;5.20;2.17;;;20.30;58.40;;;;;;5114770;28;20364;-70
2021/06/12 10:12:31;;;;;;;4.03;1.33;;;20.20;59.50;;;;;;5115375;28;20081;-70
2021/06/12 10:14:59;;;;;;;3.80;2.08;;;20.20;59.40;;;;;;5115050;28;20027;-70
2021/06/12 10:17:27;;;;;;;2.25;1.52;;;20.30;59.80;;;;;;5113050;28;20100;-71
2021/06/12 10:19:57;;;;;;;1.33;1.00;;;20.20;59.70;;;;;;5096385;28;20096;-70
2021/06/12 10:22:23;;;;;;;11.00;2.25;;;20.40;58.90;;;;;;5095378;28;20373;-70
2021/06/12 10:24:51;;;;;;;3.17;1.92;;;20.30;59.30;;;;;;5095220;28;20457;-70
2021/06/12 10:27:18;;;;;;;4.65;1.20;;;20.40;58.70;;;;;;5094915;28;20019;-71
2021/06/12 10:29:47;;;;;;;4.78;1.52;;;20.30;60.20;;;;;;5081777;28;20032;-70
2021/06/12 10:32:15;;;;;;;5.40;1.63;;;20.40;60.20;;;;;;5095017;28;20020;-71
2021/06/12 10:34:42;;;;;;;1.27;1.10;;;20.30;58.80;;;;;;5094964;28;20357;-70
2021/06/12 10:37:12;;;;;;;4.93;1.50;;;20.30;59.60;;;;;;5077042;28;20039;-70
2021/06/12 10:39:41;;;;;;;2.42;1.13;;;20.30;59.30;;;;;;5096136;28;20019;-70
2021/06/12 10:42:14;;;;;;;2.15;1.42;;;20.30;58.00;;;;;;5094872;28;20020;-70
2021/06/12 10:44:43;;;;;;;2.42;1.00;;;20.30;60.70;;;;;;5094813;28;20401;-70
2021/06/12 10:47:10;;;;;;;5.30;2.17;;;20.30;60.50;;;;;;5109468;28;20544;-70
2021/06/12 10:49:37;;;;;;;2.85;1.92;;;20.30;58.90;;;;;;5113032;28;20027;-71
2021/06/12 10:52:05;;;;;;;5.45;1.17;;;20.40;58.90;;;;;;5115075;28;20342;-70
2021/06/12 10:54:37;;;;;;;2.47;1.20;;;20.30;61.00;;;;;;5114351;28;20034;-70
2021/06/12 10:57:14;;;;;;;1.52;1.38;;;20.20;63.20;;;;;;5103945;28;20046;-70
2021/06/12 10:59:42;;;;;;;6.55;1.35;;;20.00;64.40;;;;;;5098406;28;20027;-70
2021/06/12 11:05:01;;;;;;;1.67;1.35;;;19.90;64.20;;;;;;5089940;28;20073;-70
2021/06/12 11:07:38;;;;;;;2.95;1.85;;;19.90;65.00;;;;;;5094718;28;20016;-71
2021/06/12 11:10:13;;;;;;;8.93;1.63;;;20.20;60.90;;;;;;5098507;28;20089;-70
2021/06/12 11:12:45;;;;;;;1.27;1.00;;;20.20;62.50;;;;;;5094603;28;20028;-70
2021/06/12 11:15:21;;;;;;;4.65;1.00;;;20.20;62.40;;;;;;5094146;28;20453;-70
2021/06/12 11:18:23;;;;;;;1.15;0.90;;;20.20;62.70;;;;;;5112585;28;20047;-70
2021/06/12 11:21:10;;;;;;;1.15;0.95;;;20.30;61.30;;;;;;5094490;28;20035;-70
2021/06/12 11:23:56;;;;;;;2.08;1.05;;;20.30;62.20;;;;;;5114752;28;20472;-70
2021/06/12 11:26:23;;;;;;;6.25;1.20;;;20.20;61.60;;;;;;5112730;28;20023;-70
2021/06/12 11:29:10;;;;;;;3.70;1.30;;;20.30;61.60;;;;;;5116007;28;20038;-70
2021/06/12 11:31:37;;;;;;;5.60;1.50;;;20.30;60.60;;;;;;5110459;28;20073;-70
2021/06/12 11:34:11;;;;;;;2.63;1.40;;;20.30;63.10;;;;;;5090280;28;20028;-71
2021/06/12 11:36:37;;;;;;;2.83;1.30;;;20.30;62.10;;;;;;5096043;28;20070;-70
2021/06/12 11:39:04;;;;;;;2.35;1.00;;;20.20;63.30;;;;;;5098116;28;20036;-70
2021/06/12 11:41:31;;;;;;;6.00;1.40;;;20.40;62.30;;;;;;5114929;28;20361;-70
2021/06/12 11:43:59;;;;;;;2.28;1.45;;;20.30;62.60;;;;;;5117773;28;20445;-71
2021/06/12 11:46:28;;;;;;;1.65;1.15;;;20.30;62.80;;;;;;5099166;28;20036;-71
2021/06/12 11:48:56;;;;;;;2.83;1.25;;;20.40;62.20;;;;;;5099070;28;20040;-70
2021/06/12 11:51:25;;;;;;;2.10;0.93;;;20.40;61.90;;;;;;5105172;28;20085;-70
2021/06/12 11:54:15;;;;;;;5.95;1.30;;;20.40;61.90;;;;;;5101965;28;20028;-70
2021/06/12 11:56:53;;;;;;;3.28;1.17;;;20.40;61.50;;;;;;5088431;28;20101;-71
2021/06/12 11:59:22;;;;;;;1.95;1.35;;;20.30;62.90;;;;;;5097949;28;20212;-70
2021/06/12 12:02:05;;;;;;;2.15;1.15;;;20.20;63.80;;;;;;5108798;28;20023;-71
2021/06/12 12:04:39;;;;;;;;;;;20.20;63.20;;;;;;5113472;28;20028;-70
2021/06/12 12:07:11;;;;;;;3.45;0.90;;;20.30;61.30;;;;;;5110744;28;19915;-71
2021/06/12 12:09:49;;;;;;;2.03;1.00;;;20.30;62.40;;;;;;5097698;28;20032;-70
2021/06/12 12:12:17;;;;;;;1.27;1.00;;;20.30;63.20;;;;;;5077436;28;20489;-71
2021/06/12 12:14:46;;;;;;;2.38;1.50;;;20.30;63.90;;;;;;5093116;28;20473;-70
2021/06/12 12:17:29;;;;;;;2.28;1.30;;;20.30;63.50;;;;;;5097555;28;20098;-71
2021/06/12 12:19:59;;;;;;;3.55;0.82;;;20.20;65.20;;;;;;5103014;28;20103;-71
2021/06/12 12:22:44;;;;;;;3.72;0.85;;;20.20;63.50;;;;;;5116259;28;20081;-70
2021/06/12 12:25:13;;;;;;;5.10;1.40;;;20.20;62.40;;;;;;5097359;28;20501;-71
2021/06/12 12:27:40;;;;;;;3.08;1.00;;;20.30;62.30;;;;;;5097564;28;20449;-70
2021/06/12 12:30:09;;;;;;;2.22;1.13;;;20.30;61.30;;;;;;5108260;28;20194;-70
2021/06/12 12:32:36;;;;;;;1.05;0.98;;;20.30;60.80;;;;;;5079358;28;20024;-70
2021/06/12 12:35:16;;;;;;;2.42;0.80;;;20.20;61.90;;;;;;5097208;28;20028;-70
2021/06/12 12:37:43;;;;;;;4.90;0.90;;;20.20;61.10;;;;;;5097314;28;20107;-70
2021/06/12 12:40:35;;;;;;;3.10;1.60;;;20.30;60.20;;;;;;5113702;28;20120;-70
2021/06/12 12:43:06;;;;;;;11.90;1.25;;;20.30;58.50;;;;;;5082970;28;20035;-70
2021/06/12 12:45:33;;;;;;;2.00;1.27;;;20.20;60.30;;;;;;5116984;28;20511;-70
2021/06/12 12:48:00;;;;;;;6.53;1.58;;;20.20;60.00;;;;;;5116875;28;20457;-71
2021/06/12 12:50:27;;;;;;;2.78;1.00;;;20.20;61.20;;;;;;5098481;28;20107;-70
2021/06/12 12:53:04;;;;;;;1.58;0.80;;;20.20;60.60;;;;;;5079036;28;20240;-71
2021/06/12 12:55:31;;;;;;;1.08;0.68;;;20.10;60.30;;;;;;5078808;28;20169;-71
2021/06/12 12:57:57;;;;;;;2.90;1.20;;;20.20;60.70;;;;;;5110632;28;20024;-70
2021/06/12 13:00:28;;;;;;;5.43;1.17;;;20.20;59.80;;;;;;5098969;28;20111;-70